Time;durP1;ratioP1;P1;durP2;ratioP2;P2;SDS_P1;SDS_P2;PMS_P1;PMS_P2;Temp;Humidity;BMP_temperature;BMP_pressure;BME280_temperature;BME280_humidity;BME280_pressure;Samples;Min_cycle;Max_cycle;Signal;HPM_P1;HPM_P2
2022/12/28 00:00:27;;;;;;;6.20;2.20;;;;;;;4.88;90.26;101562.41;5020214;28;20044;-77
2022/12/28 00:02:55;;;;;;;5.73;2.33;;;;;;;4.88;90.33;101559.81;5015236;28;20056;-77
2022/12/28 00:05:20;;;;;;;7.15;2.20;;;;;;;4.86;90.51;101557.25;5030081;28;20029;-77
2022/12/28 00:07:45;;;;;;;5.75;2.60;;;;;;;4.86;90.50;101557.25;5023390;28;20145;-77
2022/12/28 00:10:11;;;;;;;3.90;2.17;;;;;;;4.84;90.73;101554.66;5026355;28;20071;-77
2022/12/28 00:12:36;;;;;;;6.50;2.33;;;;;;;4.85;91.13;101551.22;5032318;28;20036;-78
2022/12/28 00:15:01;;;;;;;5.45;2.28;;;;;;;4.87;90.65;101548.66;5035721;28;20076;-78
2022/12/28 00:17:27;;;;;;;7.20;2.70;;;;;;;4.86;90.94;101546.94;5029297;28;20033;-77
2022/12/28 00:19:52;;;;;;;5.97;2.38;;;;;;;4.87;91.18;101533.19;5014856;28;20107;-77
2022/12/28 00:22:17;;;;;;;5.40;2.45;;;;;;;4.90;90.88;101528.06;5019282;28;20028;-77
2022/12/28 00:24:42;;;;;;;5.60;2.50;;;;;;;4.90;90.93;101525.47;5034308;28;20021;-77
2022/12/28 00:27:08;;;;;;;5.13;2.10;;;;;;;4.93;90.98;101514.31;5033774;28;20439;-78
2022/12/28 00:29:33;;;;;;;6.85;2.38;;;;;;;4.92;91.18;101505.72;5020181;28;20033;-77
2022/12/28 00:31:58;;;;;;;6.10;2.40;;;;;;;4.91;91.02;101491.13;5025541;28;20025;-77
2022/12/28 00:34:24;;;;;;;5.97;2.50;;;;;;;4.90;91.28;101494.53;5034664;28;20025;-77
2022/12/28 00:36:50;;;;;;;4.28;2.33;;;;;;;4.91;91.19;101491.13;5023830;28;20026;-77
2022/12/28 00:39:16;;;;;;;4.15;2.30;;;;;;;4.91;90.83;101485.06;5029347;28;20480;-77
2022/12/28 00:41:41;;;;;;;4.32;2.63;;;;;;;4.88;91.52;101473.03;5016487;28;20053;-77
2022/12/28 00:44:06;;;;;;;3.47;2.00;;;;;;;4.88;91.28;101474.72;5023600;28;20113;-77
2022/12/28 00:46:32;;;;;;;5.13;2.58;;;;;;;4.88;91.23;101460.16;5023276;28;20030;-78
2022/12/28 00:48:57;;;;;;;5.25;2.10;;;;;;;4.86;91.49;101454.09;5030999;28;20037;-77
2022/12/28 00:51:22;;;;;;;5.18;2.42;;;;;;;4.86;91.64;101457.56;5032060;28;20029;-78
2022/12/28 00:53:47;;;;;;;5.95;2.22;;;;;;;4.89;91.19;101459.28;5024064;28;20110;-77
2022/12/28 00:56:15;;;;;;;5.68;2.65;;;;;;;4.94;91.52;101462.78;5015452;28;20489;-77
2022/12/28 00:58:41;;;;;;;4.95;2.50;;;;;;;4.97;91.05;101459.34;5016555;28;20038;-77
2022/12/28 01:01:12;;;;;;;5.63;2.65;;;;;;;4.99;91.08;101444.75;5031600;28;20068;-77
2022/12/28 01:03:37;;;;;;;4.15;2.25;;;;;;;5.03;91.49;101445.63;5032522;28;20385;-77
2022/12/28 01:06:07;;;;;;;5.07;2.50;;;;;;;5.05;91.39;101449.09;5024034;28;20030;-77
2022/12/28 01:08:35;;;;;;;5.47;2.38;;;;;;;5.06;90.97;101437.94;5021965;28;20091;-77
2022/12/28 01:11:06;;;;;;;5.85;2.60;;;;;;;5.07;91.60;101437.91;5032852;28;20076;-77
2022/12/28 01:13:31;;;;;;;7.18;2.42;;;;;;;5.09;91.21;101448.28;5034597;28;20033;-77
2022/12/28 01:15:56;;;;;;;5.57;2.40;;;;;;;5.11;91.14;101431.94;5034345;28;20044;-77
2022/12/28 01:18:22;;;;;;;4.50;2.20;;;;;;;5.15;91.12;101440.56;5033260;28;20029;-78
2022/12/28 01:20:47;;;;;;;5.88;2.60;;;;;;;5.17;91.07;101436.28;5034558;28;20042;-77
2022/12/28 01:23:12;;;;;;;5.82;2.55;;;;;;;5.19;90.94;101428.56;5034742;28;20025;-77
2022/12/28 01:25:37;;;;;;;4.50;2.80;;;;;;;5.18;90.95;101414.78;5032650;28;20029;-78
2022/12/28 01:28:03;;;;;;;4.45;2.28;;;;;;;5.20;90.80;101423.41;5034332;28;20439;-78
2022/12/28 01:30:29;;;;;;;7.18;2.75;;;;;;;5.21;90.59;101425.13;5034581;28;20025;-77
2022/12/28 01:32:57;;;;;;;6.93;2.80;;;;;;;5.27;90.48;101425.16;5033575;28;20162;-78
2022/12/28 01:35:22;;;;;;;4.82;2.70;;;;;;;5.30;89.95;101422.59;5034073;28;20024;-78
2022/12/28 01:37:47;;;;;;;4.13;2.50;;;;;;;5.31;90.58;101415.72;5024916;28;20026;-77
2022/12/28 01:40:14;;;;;;;4.85;2.40;;;;;;;5.30;90.71;101401.09;5034092;28;20075;-77
2022/12/28 01:42:40;;;;;;;8.30;2.70;;;;;;;5.34;90.28;101399.38;5033970;28;20021;-77
2022/12/28 01:45:20;;;;;;;4.55;2.53;;;;;;;5.33;90.31;101398.53;5034043;28;20048;-78
2022/12/28 01:47:48;;;;;;;6.45;2.80;;;;;;;5.34;90.67;101383.91;5031488;28;20166;-77
2022/12/28 01:50:17;;;;;;;6.30;2.70;;;;;;;5.35;90.29;101373.59;5032234;28;20028;-78
2022/12/28 01:52:48;;;;;;;6.03;2.90;;;;;;;5.38;90.43;101383.91;5033416;28;20112;-77
2022/12/28 01:55:19;;;;;;;6.68;2.92;;;;;;;5.42;89.84;101377.06;5033657;28;20017;-78
2022/12/28 01:57:49;;;;;;;6.45;2.45;;;;;;;5.41;90.25;101373.63;5031983;28;20497;-78
2022/12/28 02:00:16;;;;;;;4.60;2.72;;;;;;;5.44;90.15;101365.03;5039378;28;20104;-78
2022/12/28 02:02:48;;;;;;;4.60;2.60;;;;;;;5.45;90.10;101367.63;5032761;28;20485;-77
2022/12/28 02:05:14;;;;;;;8.38;2.40;;;;;;;5.48;90.05;101340.94;5030994;28;20427;-78
2022/12/28 02:07:51;;;;;;;6.40;2.63;;;;;;;5.50;90.27;101349.56;5031093;28;20027;-78
2022/12/28 02:10:18;;;;;;;4.60;2.30;;;;;;;5.53;89.71;101328.94;5031582;28;20095;-78
2022/12/28 02:12:43;;;;;;;6.43;2.70;;;;;;;5.54;90.08;101334.97;5033695;28;20029;-78
2022/12/28 02:15:09;;;;;;;4.80;2.50;;;;;;;5.54;89.80;101330.66;5033611;28;20116;-77
2022/12/28 02:17:34;;;;;;;5.15;2.58;;;;;;;5.57;89.83;101311.72;5032216;28;20092;-78
2022/12/28 02:20:00;;;;;;;4.97;2.45;;;;;;;5.58;89.71;101316.91;5033440;28;20052;-77
2022/12/28 02:22:40;;;;;;;5.30;2.65;;;;;;;5.60;89.93;101304.88;5032422;28;20036;-78
2022/12/28 02:25:33;;;;;;;5.80;2.67;;;;;;;5.62;89.68;101313.50;5033365;28;20060;-78
2022/12/28 02:28:23;;;;;;;4.82;2.30;;;;;;;5.66;90.04;101292.81;5033396;28;20030;-78
2022/12/28 02:31:09;;;;;;;4.45;2.15;;;;;;;5.70;89.82;101300.59;5031864;28;20025;-78
2022/12/28 02:33:38;;;;;;;4.93;2.40;;;;;;;5.71;89.92;101288.53;5032468;28;20032;-77
2022/12/28 02:36:27;;;;;;;4.57;2.28;;;;;;;5.74;90.12;101283.38;5032918;28;20234;-78
2022/12/28 02:38:58;;;;;;;4.93;2.40;;;;;;;5.78;90.00;101277.38;5032872;28;20014;-78
2022/12/28 02:41:25;;;;;;;5.57;2.60;;;;;;;5.82;89.80;101255.84;5032497;28;20049;-77
2022/12/28 02:43:54;;;;;;;3.60;2.35;;;;;;;5.84;90.06;101250.69;5032717;28;20488;-77
2022/12/28 02:52:34;;;;;;;6.97;2.47;;;;;;;5.88;90.52;101248.09;5032798;28;20095;-77
2022/12/28 02:58:16;;;;;;;4.07;2.50;;;;;;;5.89;90.90;101248.97;5032581;28;20064;-77
2022/12/28 03:01:07;;;;;;;5.30;2.70;;;;;;;5.88;91.27;101237.78;5032315;28;20091;-77
2022/12/28 03:03:37;;;;;;;5.88;2.92;;;;;;;5.88;91.74;101240.34;5032920;28;20029;-77
2022/12/28 03:09:28;;;;;;;7.22;2.80;;;;;;;5.84;92.62;101240.38;5032260;28;20040;-78
2022/12/28 03:12:02;;;;;;;7.68;2.72;;;;;;;5.82;92.92;101240.34;5035096;28;20087;-78
2022/12/28 03:14:46;;;;;;;5.03;2.60;;;;;;;5.81;93.44;101240.34;5048114;28;20107;-78
2022/12/28 03:31:13;;;;;;;4.60;2.78;;;;;;;5.77;94.72;101211.94;5031561;28;20044;-78
2022/12/28 03:33:43;;;;;;;5.00;3.05;;;;;;;5.79;95.50;101214.56;5031768;28;20400;-77
2022/12/28 03:36:11;;;;;;;5.70;3.00;;;;;;;5.77;95.66;101203.34;5030925;28;20411;-77
2022/12/28 03:38:59;;;;;;;4.50;3.00;;;;;;;5.79;96.15;101201.63;5031644;28;20495;-77
2022/12/28 03:41:33;;;;;;;6.32;3.13;;;;;;;5.77;96.22;101211.09;5031337;28;20028;-77
2022/12/28 03:44:07;;;;;;;4.85;3.28;;;;;;;5.77;96.98;101214.53;5030610;28;20366;-78
2022/12/28 03:46:44;;;;;;;5.95;3.22;;;;;;;5.77;96.65;101211.09;5031608;28;20033;-77
2022/12/28 03:49:10;;;;;;;5.70;3.42;;;;;;;5.78;96.92;101211.09;5032293;28;20041;-77
2022/12/28 03:51:36;;;;;;;6.45;3.75;;;;;;;5.80;97.29;101205.06;5030428;28;20025;-78
2022/12/28 03:54:01;;;;;;;5.65;3.42;;;;;;;5.81;97.51;101199.91;5032226;28;20025;-78
2022/12/28 03:56:27;;;;;;;5.13;3.63;;;;;;;5.83;97.57;101187.84;5031660;28;20035;-78
2022/12/28 03:58:53;;;;;;;5.10;3.33;;;;;;;5.82;97.97;101191.28;5034308;28;20424;-77
2022/12/28 04:01:19;;;;;;;5.93;3.28;;;;;;;5.82;98.08;101186.13;5034519;28;20186;-78
2022/12/28 04:03:45;;;;;;;7.95;3.50;;;;;;;5.83;98.27;101181.84;5035878;28;20136;-78
2022/12/28 04:06:15;;;;;;;4.53;3.10;;;;;;;5.85;97.84;101185.28;5034457;28;20480;-78
2022/12/28 04:08:42;;;;;;;5.15;3.60;;;;;;;5.85;98.56;101173.22;5034545;28;20332;-77
2022/12/28 04:11:08;;;;;;;6.25;3.40;;;;;;;5.93;98.44;101178.38;5034073;28;20067;-78
2022/12/28 04:13:34;;;;;;;8.07;3.72;;;;;;;5.91;98.31;101175.81;5034907;28;20053;-78
2022/12/28 04:16:02;;;;;;;6.68;3.72;;;;;;;5.96;98.25;101164.63;5034548;28;20040;-77
2022/12/28 04:18:29;;;;;;;9.65;4.00;;;;;;;5.97;98.49;101164.59;5033290;28;20029;-77
2022/12/28 04:20:55;;;;;;;6.22;3.50;;;;;;;6.00;98.74;101166.34;5034533;28;20033;-78
2022/12/28 04:23:20;;;;;;;5.82;3.65;;;;;;;6.02;98.72;101162.91;5034596;28;20041;-77
2022/12/28 04:26:16;;;;;;;6.22;3.45;;;;;;;6.02;98.63;101173.25;5034652;28;20444;-77
2022/12/28 04:28:41;;;;;;;5.70;3.40;;;;;;;6.04;98.54;101161.19;5030697;28;20473;-77
2022/12/28 04:31:09;;;;;;;6.35;3.55;;;;;;;6.06;98.59;101171.50;5034029;28;20033;-78
2022/12/28 04:33:36;;;;;;;5.63;3.42;;;;;;;6.08;98.84;101165.47;5034451;28;20389;-77
2022/12/28 04:36:04;;;;;;;8.13;3.58;;;;;;;6.13;98.83;101180.09;5034196;28;20025;-78
2022/12/28 04:38:30;;;;;;;8.25;3.47;;;;;;;6.15;98.75;101174.06;5033547;28;20040;-77
2022/12/28 04:40:55;;;;;;;6.22;3.17;;;;;;;6.15;98.64;101166.31;5034821;28;20116;-78
2022/12/28 04:43:20;;;;;;;5.65;3.40;;;;;;;6.18;98.58;101168.06;5032152;28;20033;-78
2022/12/28 04:45:55;;;;;;;5.00;3.25;;;;;;;6.18;99.00;101163.72;5033696;28;20531;-77
2022/12/28 04:48:20;;;;;;;5.65;3.00;;;;;;;6.17;99.16;101149.09;5031701;28;20545;-78
2022/12/28 04:50:45;;;;;;;5.22;3.10;;;;;;;6.23;99.19;101156.00;5034762;28;20108;-78
2022/12/28 04:53:10;;;;;;;4.85;2.83;;;;;;;6.25;99.09;101156.81;5034303;28;20037;-78
2022/12/28 04:55:36;;;;;;;5.18;3.03;;;;;;;6.24;99.32;101155.09;5033913;28;20135;-77
2022/12/28 04:58:02;;;;;;;4.88;2.85;;;;;;;6.23;99.33;101156.84;5033666;28;20035;-77
2022/12/28 05:00:27;;;;;;;5.00;2.85;;;;;;;6.25;99.87;101141.31;5034956;28;20051;-77
2022/12/28 05:02:53;;;;;;;6.47;2.83;;;;;;;6.27;99.58;101146.50;5033864;28;20465;-78
2022/12/28 05:05:18;;;;;;;6.53;2.63;;;;;;;6.30;99.61;101151.66;5034279;28;20056;-78
2022/12/28 05:07:43;;;;;;;4.35;2.53;;;;;;;6.30;99.56;101143.91;5033706;28;20037;-77
2022/12/28 05:10:08;;;;;;;4.90;2.47;;;;;;;6.30;100.00;101142.16;5033201;28;20038;-78
2022/12/28 05:12:34;;;;;;;5.50;2.63;;;;;;;6.31;100.00;101143.03;5048611;28;20033;-77
2022/12/28 05:14:59;;;;;;;6.13;2.78;;;;;;;6.33;100.00;101146.47;5035779;28;20021;-78
2022/12/28 05:17:24;;;;;;;3.42;2.38;;;;;;;6.34;100.00;101149.06;5045537;28;20482;-78
2022/12/28 05:19:49;;;;;;;4.38;2.70;;;;;;;6.38;100.00;101144.72;5038528;28;20050;-78
2022/12/28 05:22:15;;;;;;;6.07;2.53;;;;;;;6.38;100.00;101147.31;5037022;28;20026;-77
2022/12/28 05:24:41;;;;;;;4.78;2.60;;;;;;;6.41;100.00;101149.00;5046989;28;20029;-78
2022/12/28 05:27:06;;;;;;;3.40;2.30;;;;;;;6.40;100.00;101147.31;5048536;28;20032;-78
2022/12/28 05:29:31;;;;;;;4.18;2.47;;;;;;;6.41;100.00;101151.59;5032391;28;20534;-78
2022/12/28 05:31:57;;;;;;;5.82;2.45;;;;;;;6.43;100.00;101139.53;5034454;28;20040;-77
2022/12/28 05:34:22;;;;;;;6.40;2.40;;;;;;;6.44;100.00;101139.56;5050941;28;20025;-77
2022/12/28 05:36:47;;;;;;;4.20;2.28;;;;;;;6.43;100.00;101144.72;5045337;28;20048;-77
2022/12/28 05:39:13;;;;;;;3.97;2.10;;;;;;;6.45;100.00;101143.84;5032549;28;20044;-77
2022/12/28 05:41:38;;;;;;;4.43;2.45;;;;;;;6.45;100.00;101136.09;5044200;28;20052;-78
2022/12/28 05:44:04;;;;;;;5.05;2.47;;;;;;;6.46;100.00;101144.69;5051998;28;20040;-78
2022/12/28 05:46:31;;;;;;;4.38;2.28;;;;;;;6.46;100.00;101143.00;5042275;28;20030;-78
2022/12/28 05:48:57;;;;;;;3.90;2.38;;;;;;;6.48;100.00;101136.09;5039512;28;20037;-78
2022/12/28 05:51:25;;;;;;;3.55;2.28;;;;;;;6.50;100.00;101134.34;5050490;28;20091;-78
2022/12/28 05:53:51;;;;;;;3.95;1.95;;;;;;;6.47;100.00;101124.03;5039249;28;20491;-77
2022/12/28 05:56:19;;;;;;;3.83;2.00;;;;;;;6.51;100.00;101130.88;5034426;28;20033;-78
2022/12/28 05:58:46;;;;;;;3.60;2.00;;;;;;;6.52;100.00;101127.44;5048720;28;20032;-77
2022/12/28 06:01:17;;;;;;;3.90;2.10;;;;;;;6.53;100.00;101129.16;5031746;28;20029;-77
2022/12/28 06:03:43;;;;;;;4.75;1.80;;;;;;;6.55;100.00;101125.72;5045016;28;20056;-78
2022/12/28 06:06:12;;;;;;;3.78;1.88;;;;;;;6.56;100.00;101125.72;5030887;28;20025;-78
2022/12/28 06:08:38;;;;;;;3.13;2.00;;;;;;;6.57;100.00;101116.22;5043749;28;20095;-78
2022/12/28 06:11:06;;;;;;;2.97;2.00;;;;;;;6.60;100.00;101098.13;5032246;28;20463;-78
2022/12/28 06:13:32;;;;;;;2.63;1.60;;;;;;;6.63;100.00;101111.03;5047850;28;20113;-78
2022/12/28 06:15:57;;;;;;;4.47;2.10;;;;;;;6.63;100.00;101108.44;5039224;28;20033;-78
2022/12/28 06:18:26;;;;;;;4.15;1.80;;;;;;;6.64;100.00;101100.69;5031535;28;20043;-78
2022/12/28 06:20:52;;;;;;;3.97;1.77;;;;;;;6.63;100.00;101088.63;5027333;28;20544;-78
2022/12/28 06:23:17;;;;;;;3.25;1.75;;;;;;;6.64;100.00;101090.34;5032049;28;20113;-77
2022/12/28 06:25:42;;;;;;;3.88;1.80;;;;;;;6.66;100.00;101093.78;5033035;28;20036;-78
2022/12/28 06:28:07;;;;;;;2.15;1.30;;;;;;;6.68;100.00;101096.34;5031990;28;20104;-78
2022/12/28 06:30:33;;;;;;;3.55;1.60;;;;;;;6.70;100.00;101099.78;5040069;28;20392;-78
2022/12/28 06:32:58;;;;;;;3.90;1.80;;;;;;;6.72;100.00;101092.03;5034784;28;20029;-78
2022/12/28 06:35:23;;;;;;;4.40;1.90;;;;;;;6.71;100.00;101090.31;5040354;28;20454;-78
2022/12/28 06:37:49;;;;;;;3.22;1.75;;;;;;;6.74;100.00;101092.88;5034085;28;20037;-77
2022/12/28 06:40:14;;;;;;;4.78;1.70;;;;;;;6.72;100.00;101087.69;5033753;28;20029;-77
2022/12/28 06:42:40;;;;;;;3.40;1.60;;;;;;;6.75;100.00;101084.22;5028426;28;20033;-77
2022/12/28 06:45:06;;;;;;;1.77;1.38;;;;;;;6.75;100.00;101079.94;5043078;28;20026;-77
2022/12/28 06:47:32;;;;;;;2.80;1.60;;;;;;;6.76;100.00;101076.47;5044407;28;20028;-77
2022/12/28 06:49:58;;;;;;;3.38;1.70;;;;;;;6.79;100.00;101089.41;5039356;28;20457;-78
2022/12/28 06:52:23;;;;;;;3.95;1.92;;;;;;;6.78;100.00;101086.81;5046223;28;20029;-78
2022/12/28 06:54:48;;;;;;;3.15;1.73;;;;;;;6.76;100.00;101084.25;5050507;28;20064;-77
2022/12/28 06:57:14;;;;;;;2.70;1.70;;;;;;;6.79;100.00;101079.06;5045253;28;20029;-78
2022/12/28 06:59:39;;;;;;;3.40;1.83;;;;;;;6.78;100.00;101085.09;5030275;28;20037;-77
2022/12/28 07:02:04;;;;;;;2.95;1.70;;;;;;;6.83;100.00;101083.31;5031142;28;20087;-78
2022/12/28 07:04:29;;;;;;;3.30;1.80;;;;;;;6.82;100.00;101079.03;5032748;28;20029;-77
2022/12/28 07:06:55;;;;;;;2.83;1.80;;;;;;;6.83;100.00;101067.81;5032606;28;20029;-77
2022/12/28 07:09:20;;;;;;;3.20;1.77;;;;;;;6.83;100.00;101079.88;5032701;28;20499;-78
2022/12/28 07:11:49;;;;;;;4.13;1.90;;;;;;;6.87;100.00;101080.72;5030738;28;20052;-77
2022/12/28 07:14:14;;;;;;;3.30;1.77;;;;;;;6.87;100.00;101079.00;5034249;28;20057;-77
2022/12/28 07:16:39;;;;;;;4.63;1.83;;;;;;;6.87;100.00;101080.72;5031454;28;20430;-77
2022/12/28 07:19:05;;;;;;;6.80;2.33;;;;;;;6.89;100.00;101071.22;5030644;28;20106;-77
2022/12/28 07:21:36;;;;;;;3.38;1.80;;;;;;;6.87;100.00;101071.25;5032450;28;20035;-77
2022/12/28 07:24:02;;;;;;;2.78;1.85;;;;;;;6.93;100.00;101076.34;5012852;28;20034;-78
2022/12/28 07:26:30;;;;;;;2.42;1.80;;;;;;;6.92;100.00;101073.78;5012943;28;20358;-78
2022/12/28 07:28:59;;;;;;;2.97;1.90;;;;;;;6.94;100.00;101072.06;5030082;28;20100;-78
2022/12/28 07:31:33;;;;;;;2.95;1.80;;;;;;;6.93;100.00;101067.75;5033179;28;20020;-77
2022/12/28 07:33:59;;;;;;;3.17;1.60;;;;;;;6.93;100.00;101062.59;5036799;28;20021;-78
2022/12/28 07:36:27;;;;;;;3.72;2.00;;;;;;;6.97;100.00;101067.72;5036296;28;20040;-78
2022/12/28 07:38:52;;;;;;;2.47;1.60;;;;;;;6.98;100.00;101061.69;5036663;28;20032;-77
2022/12/28 07:41:23;;;;;;;3.47;1.80;;;;;;;6.98;100.00;101063.41;5035673;28;20029;-77
2022/12/28 07:43:49;;;;;;;3.40;1.90;;;;;;;6.98;100.00;101063.41;5036436;28;20030;-77
2022/12/28 07:46:17;;;;;;;4.35;1.83;;;;;;;6.97;100.00;101067.72;5036081;28;20029;-78
2022/12/28 07:48:44;;;;;;;2.90;1.80;;;;;;;7.00;100.00;101077.19;5035304;28;20124;-78
2022/12/28 07:51:23;;;;;;;3.05;1.73;;;;;;;6.98;100.00;101068.59;5035523;28;20040;-77
2022/12/28 07:53:51;;;;;;;2.55;1.50;;;;;;;7.01;100.00;101080.63;5036241;28;20048;-77
2022/12/28 07:56:17;;;;;;;2.67;1.60;;;;;;;7.01;100.00;101080.63;5035894;28;20029;-79
2022/12/28 07:58:47;;;;;;;3.10;1.80;;;;;;;7.01;100.00;101078.88;5034475;28;20543;-78
2022/12/28 08:01:15;;;;;;;2.33;1.45;;;;;;;7.03;100.00;101086.66;5037346;28;20024;-78
2022/12/28 08:03:41;;;;;;;3.20;1.75;;;;;;;7.04;100.00;101078.88;5034355;28;20036;-77
2022/12/28 08:06:09;;;;;;;2.35;1.73;;;;;;;7.04;100.00;101078.88;5035431;28;20440;-77
2022/12/28 08:08:36;;;;;;;2.85;1.60;;;;;;;7.09;100.00;101079.72;5035076;28;20057;-77
2022/12/28 08:11:07;;;;;;;2.28;1.67;;;;;;;7.09;100.00;101084.88;5035909;28;20030;-77
2022/12/28 08:13:36;;;;;;;2.50;1.50;;;;;;;7.08;100.00;101078.00;5035119;28;20090;-77
2022/12/28 08:16:03;;;;;;;2.60;1.60;;;;;;;7.08;100.00;101072.81;5035614;28;20036;-77
2022/12/28 08:18:29;;;;;;;3.15;1.70;;;;;;;7.08;100.00;101065.06;5034494;28;20037;-78
2022/12/28 08:20:59;;;;;;;2.30;1.52;;;;;;;7.09;100.00;101074.53;5034970;28;20026;-77
2022/12/28 08:23:25;;;;;;;2.25;1.50;;;;;;;7.11;100.00;101070.22;5035730;28;20056;-78
2022/12/28 08:25:50;;;;;;;2.45;1.65;;;;;;;7.11;100.00;101070.22;5035560;28;20123;-78
2022/12/28 08:28:15;;;;;;;4.97;1.90;;;;;;;7.12;100.00;101068.47;5034586;28;20389;-77
2022/12/28 08:30:40;;;;;;;2.65;1.75;;;;;;;7.13;100.00;101077.94;5033749;28;20104;-77
2022/12/28 08:33:06;;;;;;;4.97;2.03;;;;;;;7.14;100.00;101066.72;5024854;28;20030;-77
2022/12/28 08:35:31;;;;;;;4.15;2.00;;;;;;;7.16;100.00;101059.81;5031255;28;20051;-78
2022/12/28 08:37:56;;;;;;;3.05;1.90;;;;;;;7.14;100.00;101065.03;5033237;28;20060;-77
2022/12/28 08:40:26;;;;;;;3.65;1.90;;;;;;;7.17;100.00;101064.13;5035244;28;20084;-78
2022/12/28 08:42:52;;;;;;;3.42;1.92;;;;;;;7.17;100.00;101069.31;5034763;28;20021;-78
2022/12/28 08:45:18;;;;;;;3.78;2.00;;;;;;;7.17;100.00;101065.88;5033920;28;20022;-77
2022/12/28 08:47:43;;;;;;;3.80;1.98;;;;;;;7.20;100.00;101068.41;5031037;28;20026;-77
2022/12/28 08:50:08;;;;;;;3.55;2.20;;;;;;;7.23;100.00;101068.38;5034566;28;20020;-77
2022/12/28 08:52:33;;;;;;;3.88;2.20;;;;;;;7.22;100.00;101056.31;5038243;28;20455;-77
2022/12/28 08:54:59;;;;;;;3.78;1.98;;;;;;;7.23;100.00;101065.78;5053528;28;20028;-78
2022/12/28 08:57:24;;;;;;;4.40;2.10;;;;;;;7.26;100.00;101058.00;5046750;28;20032;-77
2022/12/28 08:59:49;;;;;;;3.78;2.20;;;;;;;7.26;100.00;101058.00;5033434;28;20029;-77
2022/12/28 09:02:14;;;;;;;3.38;2.22;;;;;;;7.26;100.00;101061.44;5045253;28;20415;-77
2022/12/28 09:04:40;;;;;;;3.55;2.08;;;;;;;7.28;100.00;101058.88;5046203;28;20040;-77
2022/12/28 09:07:06;;;;;;;4.93;2.40;;;;;;;7.29;100.00;101063.16;5039198;28;20546;-78
2022/12/28 09:09:33;;;;;;;4.10;2.17;;;;;;;7.28;100.00;101057.13;5042352;28;20075;-77
2022/12/28 09:11:58;;;;;;;5.78;2.13;;;;;;;7.32;100.00;101049.34;5038930;28;20499;-77
2022/12/28 09:14:24;;;;;;;4.47;2.20;;;;;;;7.31;100.00;101056.25;5054956;28;20088;-78
2022/12/28 09:16:50;;;;;;;6.30;2.30;;;;;;;7.32;100.00;101052.78;5046602;28;20029;-78
2022/12/28 09:19:15;;;;;;;3.33;2.00;;;;;;;7.32;100.00;101064.84;5032910;28;20076;-77
2022/12/28 09:21:41;;;;;;;4.00;1.90;;;;;;;7.31;100.00;101061.44;5034985;28;20053;-77
2022/12/28 09:24:07;;;;;;;4.28;2.10;;;;;;;7.32;100.00;101062.28;5054562;28;20041;-77
2022/12/28 09:26:36;;;;;;;3.58;2.20;;;;;;;7.32;100.00;101055.38;5049675;28;20484;-77
2022/12/28 09:29:04;;;;;;;3.58;2.00;;;;;;;7.34;100.00;101065.72;5035948;28;20029;-77
2022/12/28 09:31:31;;;;;;;3.33;1.85;;;;;;;7.34;100.00;101063.13;5031541;28;20020;-80
2022/12/28 09:34:00;;;;;;;3.95;1.77;;;;;;;7.36;100.00;101064.81;5034269;28;20587;-77
2022/12/28 09:36:32;;;;;;;4.00;1.80;;;;;;;7.37;100.00;101063.09;5027340;28;20033;-78
2022/12/28 09:38:59;;;;;;;3.42;1.63;;;;;;;7.40;100.00;101058.75;5028871;28;20045;-78
2022/12/28 09:41:29;;;;;;;2.53;1.77;;;;;;;7.41;100.00;101063.06;5030801;28;20138;-77
2022/12/28 09:44:15;;;;;;;3.30;1.95;;;;;;;7.42;100.00;101063.94;5031128;28;20079;-78
2022/12/28 09:46:59;;;;;;;3.92;1.80;;;;;;;7.43;100.00;101063.91;5030899;28;20029;-78
2022/12/28 09:49:46;;;;;;;3.35;1.70;;;;;;;7.44;100.00;101065.63;5035009;28;20033;-78
2022/12/28 09:52:35;;;;;;;2.97;1.67;;;;;;;7.47;100.00;101056.13;5030010;28;20025;-78
2022/12/28 09:55:09;;;;;;;5.18;1.92;;;;;;;7.45;100.00;101061.28;5037046;28;20048;-78
2022/12/28 09:57:37;;;;;;;2.60;1.73;;;;;;;7.48;100.00;101063.00;5035611;28;20118;-78
2022/12/28 10:00:05;;;;;;;3.72;1.63;;;;;;;7.47;100.00;101046.59;5028313;28;20032;-78
2022/12/28 10:02:33;;;;;;;3.28;1.90;;;;;;;7.48;100.00;101050.06;5027280;28;20092;-77
2022/12/28 10:04:59;;;;;;;2.50;1.67;;;;;;;7.50;100.00;101053.50;5032302;28;20123;-77
2022/12/28 10:07:24;;;;;;;3.10;1.55;;;;;;;7.50;100.00;101049.16;5034210;28;20417;-78
2022/12/28 10:09:50;;;;;;;2.42;1.40;;;;;;;7.53;100.00;101058.63;5021575;28;20029;-77
2022/12/28 10:12:20;;;;;;;3.70;1.70;;;;;;;7.53;100.00;101051.72;5023606;28;20103;-77
2022/12/28 10:14:47;;;;;;;2.15;1.48;;;;;;;7.56;100.00;101040.47;5023865;28;20040;-78
2022/12/28 10:17:14;;;;;;;2.45;1.73;;;;;;;7.57;100.00;101045.66;5026289;28;20029;-78
2022/12/28 10:19:44;;;;;;;5.93;1.95;;;;;;;7.58;100.00;101041.31;5022559;28;20100;-78
2022/12/28 10:22:14;;;;;;;2.50;1.60;;;;;;;7.58;100.00;101043.91;5026419;28;20424;-78
2022/12/28 10:24:40;;;;;;;4.00;1.88;;;;;;;7.60;100.00;101044.75;5022760;28;20033;-78
2022/12/28 10:27:10;;;;;;;3.70;2.20;;;;;;;7.57;100.00;101027.53;5040502;28;20044;-78
2022/12/28 10:29:35;;;;;;;3.03;2.10;;;;;;;7.59;100.00;101040.44;5024197;28;20060;-78
2022/12/28 10:32:05;;;;;;;3.30;2.10;;;;;;;7.59;100.00;101030.09;5025362;28;20240;-77
2022/12/28 10:34:32;;;;;;;3.55;2.10;;;;;;;7.60;100.00;101029.22;5022362;28;20064;-77
2022/12/28 10:37:18;;;;;;;4.20;2.42;;;;;;;7.58;100.00;101024.06;5025343;28;20029;-77
2022/12/28 10:40:05;;;;;;;3.88;2.47;;;;;;;7.59;100.00;101023.19;5024547;28;20183;-77
2022/12/28 10:42:38;;;;;;;3.00;2.30;;;;;;;7.59;100.00;101015.44;5024160;28;20324;-78
2022/12/28 10:45:15;;;;;;;2.65;2.00;;;;;;;7.62;100.00;101019.72;5025060;28;20540;-78
2022/12/28 10:47:43;;;;;;;3.50;2.40;;;;;;;7.62;100.00;101019.72;5025995;28;20044;-77
2022/12/28 10:50:43;;;;;;;3.97;2.45;;;;;;;7.61;100.00;101015.41;5023422;28;20149;-78
2022/12/28 10:53:37;;;;;;;3.55;2.33;;;;;;;7.63;100.00;101026.59;5025713;28;20025;-78
2022/12/28 10:56:26;;;;;;;4.10;2.20;;;;;;;7.65;100.00;101035.22;5030621;28;20045;-76
2022/12/28 10:58:54;;;;;;;3.58;2.30;;;;;;;7.67;100.00;101009.28;5024247;28;20500;-77
2022/12/28 11:01:27;;;;;;;4.80;2.80;;;;;;;7.67;100.00;101010.16;5025100;28;20037;-77
2022/12/28 11:03:55;;;;;;;8.82;5.38;;;;;;;7.66;100.00;101013.63;5026536;28;20036;-77
2022/12/28 11:06:23;;;;;;;5.38;3.67;;;;;;;7.69;100.00;101004.97;5022399;28;20045;-77
2022/12/28 11:09:21;;;;;;;5.00;2.65;;;;;;;7.70;100.00;101002.34;5023346;28;20480;-77
2022/12/28 11:11:48;;;;;;;4.05;2.60;;;;;;;7.69;100.00;101005.81;5020873;28;21812;-77
2022/12/28 11:14:33;;;;;;;3.13;2.33;;;;;;;7.72;100.00;100999.75;5019932;28;20090;-77
2022/12/28 11:17:20;;;;;;;3.53;2.10;;;;;;;7.70;100.00;100998.91;5021752;28;20073;-78
2022/12/28 11:19:49;;;;;;;3.72;2.25;;;;;;;7.69;100.00;100990.25;5021480;28;20149;-76
2022/12/28 11:22:22;;;;;;;5.05;2.08;;;;;;;7.70;100.00;100989.41;5023257;28;20033;-76
2022/12/28 11:24:47;;;;;;;3.08;1.95;;;;;;;7.72;100.00;100984.22;5022084;28;20037;-75
2022/12/28 11:27:17;;;;;;;2.47;1.88;;;;;;;7.72;100.00;100973.84;5021278;28;20048;-77
2022/12/28 11:29:46;;;;;;;4.80;2.10;;;;;;;7.74;100.00;100977.28;5024648;28;20041;-77
2022/12/28 11:32:24;;;;;;;5.53;2.17;;;;;;;7.75;100.00;100979.84;5024548;28;20564;-78
2022/12/28 11:34:52;;;;;;;3.03;1.80;;;;;;;7.74;100.00;100969.53;5022557;28;20044;-78
2022/12/28 11:37:17;;;;;;;3.65;2.10;;;;;;;7.75;100.00;100982.44;5026324;28;20490;-77
2022/12/28 11:39:45;;;;;;;3.22;1.60;;;;;;;7.78;100.00;100983.28;5023576;28;20044;-77
2022/12/28 11:42:12;;;;;;;3.97;1.90;;;;;;;7.79;100.00;100966.88;5024874;28;20029;-78
2022/12/28 11:44:37;;;;;;;2.40;1.60;;;;;;;7.81;100.00;100970.31;5023329;28;20029;-77
2022/12/28 11:47:14;;;;;;;3.20;1.80;;;;;;;7.81;100.00;100954.75;5023129;28;20346;-77
2022/12/28 11:49:40;;;;;;;3.75;1.70;;;;;;;7.81;100.00;100950.41;5022246;28;20087;-77
2022/12/28 11:52:22;;;;;;;3.58;1.80;;;;;;;7.85;100.00;100948.66;5023806;28;20818;-79
2022/12/28 11:54:54;;;;;;;2.70;1.58;;;;;;;7.85;100.00;100948.66;5024207;28;21760;-77
2022/12/28 11:57:38;;;;;;;3.00;1.80;;;;;;;7.86;100.00;100942.59;5023356;28;20059;-78
2022/12/28 12:00:16;;;;;;;3.53;1.80;;;;;;;7.85;100.00;100944.34;5023911;28;20038;-77
2022/12/28 12:02:50;;;;;;;3.83;1.90;;;;;;;7.87;100.00;100946.91;5024895;28;20068;-76